createdAt,value
2023-01-04T00:00:09.962Z,6.90
2023-01-04T00:02:38.041Z,6.90
2023-01-04T00:05:06.498Z,6.80
2023-01-04T00:07:37.480Z,6.90
2023-01-04T00:10:07.230Z,6.90
2023-01-04T00:12:37.894Z,6.90
2023-01-04T00:15:06.292Z,6.90
2023-01-04T00:17:34.578Z,6.90
2023-01-04T00:20:02.647Z,6.90
2023-01-04T00:22:34.928Z,6.90
2023-01-04T00:25:02.970Z,6.90
2023-01-04T00:27:32.376Z,6.80
2023-01-04T00:30:02.907Z,6.90
2023-01-04T00:32:32.456Z,6.90
2023-01-04T00:35:00.463Z,6.90
2023-01-04T00:37:28.444Z,6.90
2023-01-04T00:39:56.432Z,6.90
2023-01-04T00:42:24.420Z,6.90
2023-01-04T00:44:53.757Z,6.90
2023-01-04T00:47:24.513Z,6.90
2023-01-04T00:49:52.559Z,6.90
2023-01-04T00:52:20.564Z,6.90
2023-01-04T00:54:48.549Z,6.90
2023-01-04T00:57:16.588Z,6.90
2023-01-04T00:59:48.603Z,7.00
2023-01-04T01:02:20.843Z,7.00
2023-01-04T01:04:51.716Z,7.00
2023-01-04T01:07:19.700Z,7.00
2023-01-04T01:09:47.710Z,7.00
2023-01-04T01:12:15.779Z,7.00
2023-01-04T01:14:43.810Z,7.10
2023-01-04T01:17:11.911Z,7.10
2023-01-04T01:19:41.537Z,7.10
2023-01-04T01:22:09.583Z,7.10
2023-01-04T01:24:40.656Z,7.10
2023-01-04T01:27:08.634Z,7.20
2023-01-04T01:29:36.630Z,7.20
2023-01-04T01:32:07.100Z,7.20
2023-01-04T01:34:43.907Z,7.20
2023-01-04T01:37:13.219Z,7.20
2023-01-04T01:39:41.176Z,7.20
2023-01-04T01:42:17.261Z,7.30
2023-01-04T01:45:01.948Z,7.30
2023-01-04T01:47:36.901Z,7.30
2023-01-04T01:50:06.064Z,7.30
2023-01-04T01:52:41.513Z,7.30
2023-01-04T01:55:11.452Z,7.30
2023-01-04T01:57:52.619Z,7.30
2023-01-04T02:00:21.265Z,7.40
2023-01-04T02:02:53.674Z,7.40
2023-01-04T02:05:22.377Z,7.40
2023-01-04T02:07:53.060Z,7.40
2023-01-04T02:10:21.485Z,7.40
2023-01-04T02:12:51.576Z,7.40
2023-01-04T02:15:19.924Z,7.40
2023-01-04T02:17:54.984Z,7.50
2023-01-04T02:20:28.853Z,7.50
2023-01-04T02:23:14.699Z,7.50
2023-01-04T02:25:57.850Z,7.50
2023-01-04T02:28:32.274Z,7.40
2023-01-04T02:31:25.310Z,7.40
2023-01-04T02:33:55.664Z,7.40
2023-01-04T02:36:27.304Z,7.40
2023-01-04T02:39:10.224Z,7.40
2023-01-04T02:41:42.926Z,7.40
2023-01-04T02:44:30.411Z,7.40
2023-01-04T02:47:02.613Z,7.40
2023-01-04T02:49:48.362Z,7.40
2023-01-04T02:52:16.612Z,7.40
2023-01-04T02:54:45.542Z,7.40
2023-01-04T02:57:22.955Z,7.40
2023-01-04T02:59:57.489Z,7.40
2023-01-04T03:02:55.461Z,7.40
2023-01-04T03:05:40.001Z,7.40
2023-01-04T03:08:11.386Z,7.40
2023-01-04T03:10:40.454Z,7.40
2023-01-04T03:13:10.288Z,7.40
2023-01-04T03:15:42.154Z,7.40
2023-01-04T03:18:14.796Z,7.40
2023-01-04T03:20:43.624Z,7.50
2023-01-04T03:23:31.195Z,7.40
2023-01-04T03:26:18.407Z,7.40
2023-01-04T03:29:03.865Z,7.40
2023-01-04T03:31:52.026Z,7.40
2023-01-04T03:34:39.828Z,7.40
2023-01-04T03:37:10.003Z,7.40
2023-01-04T03:40:01.824Z,7.40
2023-01-04T03:42:51.910Z,7.40
2023-01-04T03:45:38.404Z,7.40
2023-01-04T03:48:30.660Z,7.40
2023-01-04T03:51:06.246Z,7.40
2023-01-04T03:53:36.887Z,7.40
2023-01-04T03:56:08.444Z,7.40
2023-01-04T03:58:36.983Z,7.40
2023-01-04T04:01:05.459Z,7.40
2023-01-04T04:03:53.573Z,7.40
2023-01-04T04:06:40.555Z,7.40
2023-01-04T04:09:08.592Z,7.40
2023-01-04T04:11:36.575Z,7.50
2023-01-04T04:14:04.534Z,7.50
2023-01-04T04:16:32.596Z,8.00
2023-01-04T04:19:06.329Z,7.50
2023-01-04T04:21:38.059Z,7.50
2023-01-04T04:24:06.430Z,7.50
2023-01-04T04:26:34.610Z,7.60
2023-01-04T04:29:02.571Z,7.60
2023-01-04T04:31:30.897Z,7.60
2023-01-04T04:33:59.192Z,7.60
2023-01-04T04:36:27.222Z,7.60
2023-01-04T04:38:56.533Z,7.70
2023-01-04T04:41:38.682Z,7.70
2023-01-04T04:44:06.913Z,7.70
2023-01-04T04:46:34.935Z,7.80
2023-01-04T04:49:03.087Z,7.80
2023-01-04T04:51:31.125Z,7.90
2023-01-04T04:54:00.507Z,7.90
2023-01-04T04:56:28.544Z,7.90
2023-01-04T04:58:56.717Z,8.00
2023-01-04T05:01:25.053Z,8.00
2023-01-04T05:03:53.103Z,8.10
2023-01-04T05:06:21.424Z,8.10
2023-01-04T05:08:50.933Z,8.10
2023-01-04T05:11:40.768Z,8.20
2023-01-04T05:14:08.175Z,8.20
2023-01-04T05:16:36.292Z,8.20
2023-01-04T05:19:04.562Z,8.20
2023-01-04T05:21:32.626Z,8.30
2023-01-04T05:24:02.054Z,8.30
2023-01-04T05:26:31.471Z,8.40
2023-01-04T05:28:59.399Z,8.40
2023-01-04T05:31:28.402Z,8.40
2023-01-04T05:33:56.449Z,8.40
2023-01-04T05:36:24.464Z,8.50
2023-01-04T05:38:52.520Z,8.50
2023-01-04T05:41:38.030Z,8.60
2023-01-04T05:44:07.460Z,8.60
2023-01-04T05:46:35.612Z,8.70
2023-01-04T05:49:05.180Z,8.70
2023-01-04T05:51:33.199Z,8.70
2023-01-04T05:54:01.192Z,8.80
2023-01-04T05:56:29.161Z,8.80
2023-01-04T05:58:57.130Z,8.90
2023-01-04T06:01:26.584Z,8.90
2023-01-04T06:03:54.660Z,8.90
2023-01-04T06:06:22.671Z,9.00
2023-01-04T06:08:50.624Z,9.00
2023-01-04T06:11:23.997Z,9.10
2023-01-04T06:13:55.297Z,9.10
2023-01-04T06:16:23.703Z,9.20
2023-01-04T06:18:53.086Z,9.20
2023-01-04T06:21:26.504Z,9.20
2023-01-04T06:23:54.487Z,9.20
2023-01-04T06:26:23.789Z,9.20
2023-01-04T06:28:54.925Z,9.30
2023-01-04T06:31:23.106Z,9.30
2023-01-04T06:33:51.164Z,9.40
2023-01-04T06:36:20.552Z,9.40
2023-01-04T06:38:48.834Z,9.40
2023-01-04T06:41:16.843Z,9.50
2023-01-04T06:43:45.139Z,9.50
2023-01-04T06:46:13.184Z,9.50
2023-01-04T06:48:41.356Z,9.50
2023-01-04T06:51:09.472Z,9.60
2023-01-04T06:53:38.843Z,9.60
2023-01-04T06:56:08.091Z,9.60
2023-01-04T06:58:36.185Z,9.60
2023-01-04T07:01:04.532Z,9.70
2023-01-04T07:03:32.723Z,9.70
2023-01-04T07:06:00.773Z,9.70
2023-01-04T07:08:28.775Z,9.70
2023-01-04T07:10:58.121Z,9.70
2023-01-04T07:13:26.157Z,9.70
2023-01-04T07:15:56.216Z,9.80
2023-01-04T07:18:24.591Z,9.80
2023-01-04T07:20:52.593Z,9.80
2023-01-04T07:23:20.583Z,9.80
2023-01-04T07:25:48.597Z,9.80
2023-01-04T07:28:38.100Z,9.80
2023-01-04T07:31:07.158Z,9.80
2023-01-04T07:33:35.244Z,9.90
2023-01-04T07:36:04.252Z,9.90
2023-01-04T07:38:35.339Z,9.90
2023-01-04T07:41:03.333Z,9.90
2023-01-04T07:43:32.693Z,9.90
2023-01-04T07:46:00.710Z,9.90
2023-01-04T07:48:29.673Z,9.90
2023-01-04T07:50:57.802Z,9.90
2023-01-04T07:53:25.806Z,9.90
2023-01-04T07:55:57.546Z,9.90
2023-01-04T07:58:25.645Z,9.90
2023-01-04T08:00:55.002Z,9.90
2023-01-04T08:03:23.071Z,9.90
2023-01-04T08:05:51.072Z,9.90
2023-01-04T08:08:19.145Z,9.90
2023-01-04T08:10:47.098Z,9.90
2023-01-04T08:13:15.111Z,9.90
2023-01-04T08:15:43.143Z,10.00
2023-01-04T08:18:12.580Z,10.00
2023-01-04T08:20:40.595Z,10.00
2023-01-04T08:23:08.666Z,10.00
2023-01-04T08:25:36.670Z,10.00
2023-01-04T08:28:04.770Z,10.00
2023-01-04T08:30:32.802Z,10.10
2023-01-04T08:33:00.791Z,10.10
2023-01-04T08:35:30.180Z,10.10
2023-01-04T08:38:20.069Z,10.10
2023-01-04T08:40:58.886Z,10.10
2023-01-04T08:43:31.120Z,10.20
2023-01-04T08:45:59.374Z,10.20
2023-01-04T08:48:27.384Z,10.20
2023-01-04T08:50:58.982Z,10.20
2023-01-04T08:53:27.268Z,10.20
2023-01-04T08:55:56.000Z,10.30
2023-01-04T08:58:24.499Z,10.30
2023-01-04T09:00:52.483Z,10.30
2023-01-04T09:03:20.844Z,10.30
2023-01-04T09:05:51.498Z,10.30
2023-01-04T09:08:23.402Z,10.30
2023-01-04T09:10:51.399Z,10.30
2023-01-04T09:13:20.593Z,10.30
2023-01-04T09:15:48.629Z,10.30
2023-01-04T09:18:32.888Z,10.30
2023-01-04T09:21:01.813Z,10.30
2023-01-04T09:23:33.935Z,10.30
2023-01-04T09:26:09.290Z,10.40
2023-01-04T09:28:38.069Z,10.40
2023-01-04T09:31:06.735Z,10.40
2023-01-04T09:34:11.594Z,10.40
2023-01-04T09:36:23.943Z,10.40
2023-01-04T09:38:53.334Z,10.40
2023-01-04T09:41:23.704Z,10.40
2023-01-04T09:43:52.823Z,10.40
2023-01-04T09:46:26.350Z,10.40
2023-01-04T09:48:56.609Z,10.40
2023-01-04T09:51:27.011Z,10.50
2023-01-04T09:53:59.359Z,10.50
2023-01-04T09:56:29.513Z,10.50
2023-01-04T09:58:58.307Z,10.50
2023-01-04T10:01:28.183Z,10.50
2023-01-04T10:04:02.177Z,10.50
2023-01-04T10:06:36.359Z,10.50
2023-01-04T10:09:08.163Z,10.60
2023-01-04T10:11:44.445Z,10.60
2023-01-04T10:14:24.783Z,10.60
2023-01-04T10:17:12.905Z,10.60
2023-01-04T10:21:14.652Z,10.60
2023-01-04T10:22:43.410Z,10.60
2023-01-04T10:25:30.680Z,10.60
2023-01-04T10:28:05.437Z,10.70
2023-01-04T10:30:40.082Z,10.70
2023-01-04T10:33:11.800Z,10.70
2023-01-04T10:35:40.970Z,10.70
2023-01-04T10:38:13.302Z,10.70
2023-01-04T10:40:42.723Z,10.70
2023-01-04T10:43:14.913Z,10.70
2023-01-04T10:45:47.383Z,10.70
2023-01-04T10:48:18.850Z,10.80
2023-01-04T10:50:49.537Z,10.80
2023-01-04T10:53:19.681Z,10.80
2023-01-04T10:56:23.626Z,10.80
2023-01-04T10:58:43.714Z,10.80
2023-01-04T11:01:13.835Z,10.80
2023-01-04T11:03:43.942Z,10.90
2023-01-04T11:06:16.619Z,10.90
2023-01-04T11:08:47.987Z,10.90
2023-01-04T11:11:21.778Z,10.90
2023-01-04T11:13:49.839Z,10.90
2023-01-04T11:16:17.930Z,10.90
2023-01-04T11:18:47.899Z,10.90
2023-01-04T11:21:18.071Z,10.90
2023-01-04T11:23:46.066Z,10.90
2023-01-04T11:26:19.212Z,11.00
2023-01-04T11:28:50.772Z,11.00
2023-01-04T11:31:23.299Z,11.00
2023-01-04T11:33:52.166Z,11.00
2023-01-04T11:36:33.346Z,11.00
2023-01-04T11:39:01.360Z,11.00
2023-01-04T11:41:29.633Z,11.00
2023-01-04T11:43:59.730Z,11.00
2023-01-04T11:46:28.038Z,11.00
2023-01-04T11:48:56.114Z,11.00
2023-01-04T11:51:39.498Z,11.10
2023-01-04T11:54:17.727Z,11.10
2023-01-04T11:56:59.563Z,11.10
2023-01-04T11:59:29.210Z,11.10
2023-01-04T12:02:50.530Z,11.10
2023-01-04T12:05:21.127Z,11.20
2023-01-04T12:07:52.568Z,11.20
2023-01-04T12:10:23.721Z,11.20
2023-01-04T12:12:53.677Z,11.20
2023-01-04T12:15:27.027Z,11.20
2023-01-04T12:17:57.168Z,11.20
2023-01-04T12:20:28.042Z,11.20
2023-01-04T12:22:56.056Z,11.30
2023-01-04T12:25:31.801Z,11.30
2023-01-04T12:27:59.821Z,11.30
2023-01-04T12:30:36.950Z,11.30
2023-01-04T12:33:23.422Z,11.30
2023-01-04T12:35:59.772Z,11.30
2023-01-04T12:38:46.248Z,11.30
2023-01-04T12:41:14.254Z,11.40
2023-01-04T12:43:46.871Z,11.40
2023-01-04T12:46:58.372Z,11.40
2023-01-04T12:49:45.808Z,11.40
2023-01-04T12:52:54.720Z,11.40
2023-01-04T12:55:45.511Z,11.40
2023-01-04T13:01:24.587Z,11.40
2023-01-04T13:04:04.361Z,11.40
2023-01-04T13:06:35.089Z,11.40
2023-01-04T13:09:03.744Z,11.50
2023-01-04T13:11:41.216Z,11.50
2023-01-04T13:14:17.772Z,11.50
2023-01-04T13:16:48.376Z,11.50
2023-01-04T13:19:21.494Z,11.50
2023-01-04T13:21:50.049Z,11.50
2023-01-04T13:24:21.499Z,11.50
2023-01-04T13:26:49.834Z,11.60
2023-01-04T13:29:19.537Z,11.50
2023-01-04T13:31:49.643Z,11.60
2023-01-04T13:34:25.288Z,11.60
2023-01-04T13:37:10.669Z,11.60
2023-01-04T13:39:39.587Z,11.60
2023-01-04T13:42:08.223Z,11.60
2023-01-04T13:45:19.068Z,11.60
2023-01-04T13:47:48.660Z,11.60
2023-01-04T13:50:26.604Z,11.60
2023-01-04T13:53:06.401Z,11.60
2023-01-04T13:55:36.573Z,11.60
2023-01-04T13:58:05.257Z,11.60
2023-01-04T14:00:40.476Z,11.60
2023-01-04T14:03:28.735Z,11.60
2023-01-04T14:06:05.097Z,11.60
2023-01-04T14:08:35.886Z,11.60
2023-01-04T14:11:06.128Z,11.60
2023-01-04T14:13:34.273Z,11.60
2023-01-04T14:16:06.433Z,11.60
2023-01-04T14:18:34.634Z,11.60
2023-01-04T14:21:15.135Z,11.60
2023-01-04T14:23:44.746Z,11.60
2023-01-04T14:26:27.622Z,11.60
2023-01-04T14:28:55.597Z,11.60
2023-01-04T14:31:34.120Z,11.60
2023-01-04T14:34:06.691Z,11.60
2023-01-04T14:36:37.129Z,11.60
2023-01-04T14:39:13.027Z,11.50
2023-01-04T14:41:42.246Z,11.50
2023-01-04T14:44:12.179Z,11.50
2023-01-04T14:46:41.791Z,11.50
2023-01-04T14:49:12.135Z,11.50
2023-01-04T14:51:44.111Z,11.50
2023-01-04T14:54:13.805Z,11.50
2023-01-04T14:56:46.232Z,11.50
2023-01-04T14:59:14.387Z,11.50
2023-01-04T15:01:42.494Z,11.40
2023-01-04T15:04:10.624Z,11.40
2023-01-04T15:06:47.330Z,11.40
2023-01-04T15:09:19.229Z,11.40
2023-01-04T15:11:47.280Z,11.40
2023-01-04T15:14:15.254Z,11.40
2023-01-04T15:16:43.413Z,11.40
2023-01-04T15:19:11.554Z,11.40
2023-01-04T15:21:41.624Z,11.40
2023-01-04T15:24:11.766Z,11.40
2023-01-04T15:26:41.185Z,11.30
2023-01-04T15:29:09.773Z,11.30
2023-01-04T15:31:40.513Z,11.30
2023-01-04T15:34:09.265Z,11.30
2023-01-04T15:36:41.283Z,11.30
2023-01-04T15:39:13.783Z,11.30
2023-01-04T15:42:00.967Z,11.30
2023-01-04T15:44:29.001Z,11.30
2023-01-04T15:46:59.336Z,11.30
2023-01-04T15:49:30.884Z,11.30
2023-01-04T15:52:02.861Z,11.30
2023-01-04T15:54:30.891Z,11.30
2023-01-04T15:57:00.283Z,11.30
2023-01-04T15:59:28.319Z,11.30
2023-01-04T16:01:59.480Z,11.30
2023-01-04T16:04:28.983Z,11.30
2023-01-04T16:06:56.964Z,11.20
2023-01-04T16:09:25.007Z,11.20
2023-01-04T16:12:13.181Z,11.20
2023-01-04T16:14:45.324Z,11.20
2023-01-04T16:17:13.409Z,11.20
2023-01-04T16:19:41.375Z,11.20
2023-01-04T16:22:09.392Z,11.20
2023-01-04T16:25:09.215Z,11.20
2023-01-04T16:27:28.492Z,11.20
2023-01-04T16:30:03.229Z,11.20
2023-01-04T16:32:31.674Z,11.20
2023-01-04T16:34:59.651Z,11.20
2023-01-04T16:37:31.758Z,11.20
2023-01-04T16:40:08.539Z,11.20
2023-01-04T16:42:37.526Z,11.20
2023-01-04T16:45:10.781Z,11.20
2023-01-04T16:47:39.660Z,11.20
2023-01-04T16:50:08.169Z,11.20
2023-01-04T16:52:36.195Z,11.20
2023-01-04T16:55:05.932Z,11.20
2023-01-04T16:57:33.878Z,11.20
2023-01-04T17:00:01.897Z,11.10
2023-01-04T17:02:31.737Z,11.10
2023-01-04T17:05:00.891Z,11.10
2023-01-04T17:07:32.655Z,11.10
2023-01-04T17:10:05.733Z,11.10
2023-01-04T17:12:46.947Z,11.10
2023-01-04T17:18:05.577Z,11.10
2023-01-04T17:20:33.750Z,11.20
2023-01-04T17:23:01.723Z,11.10
2023-01-04T17:25:29.711Z,11.10
2023-01-04T17:27:57.724Z,11.10
2023-01-04T17:30:25.747Z,11.10
2023-01-04T17:32:53.810Z,11.10
2023-01-04T17:35:23.123Z,11.00
2023-01-04T17:37:51.423Z,11.00
2023-01-04T17:40:23.568Z,11.00
2023-01-04T17:42:51.929Z,11.00
2023-01-04T17:45:19.920Z,11.00
2023-01-04T17:47:48.038Z,11.00
2023-01-04T17:50:18.129Z,11.00
2023-01-04T17:52:48.211Z,11.00
2023-01-04T17:55:16.238Z,11.00
2023-01-04T17:57:44.303Z,11.00
2023-01-04T18:00:14.767Z,11.00
2023-01-04T18:02:42.918Z,11.00
2023-01-04T18:05:11.629Z,11.10
2023-01-04T18:07:39.635Z,11.00
2023-01-04T18:10:20.781Z,11.00
2023-01-04T18:12:49.365Z,11.00
2023-01-04T18:15:17.530Z,11.00
2023-01-04T18:17:45.513Z,11.10
2023-01-04T18:20:23.908Z,11.00
2023-01-04T18:22:53.136Z,11.00
2023-01-04T18:25:22.533Z,11.00
2023-01-04T18:27:50.566Z,11.00
2023-01-04T18:30:20.446Z,11.00
2023-01-04T18:32:48.471Z,11.00
2023-01-04T18:35:16.535Z,11.00
2023-01-04T18:37:44.861Z,11.00
2023-01-04T18:40:13.209Z,10.90
2023-01-04T18:42:46.225Z,10.90
2023-01-04T18:45:14.199Z,10.90
2023-01-04T18:47:47.455Z,10.90
2023-01-04T18:50:15.642Z,10.90
2023-01-04T18:52:43.702Z,10.90
2023-01-04T18:55:11.867Z,10.90
2023-01-04T18:57:40.503Z,10.90
2023-01-04T19:00:13.616Z,10.90
2023-01-04T19:02:41.865Z,10.90
2023-01-04T19:05:11.259Z,10.90
2023-01-04T19:07:40.234Z,10.90
2023-01-04T19:10:08.799Z,10.90
2023-01-04T19:12:38.726Z,10.90
2023-01-04T19:15:09.908Z,10.80
2023-01-04T19:17:39.471Z,10.70
2023-01-04T19:20:08.063Z,10.70
2023-01-04T19:22:36.104Z,10.60
2023-01-04T19:25:04.746Z,10.50
2023-01-04T19:27:32.818Z,10.50
2023-01-04T19:30:00.899Z,10.50
2023-01-04T19:32:33.355Z,10.50
2023-01-04T19:35:03.343Z,10.50
2023-01-04T19:37:31.806Z,10.50
2023-01-04T19:40:02.676Z,10.50
2023-01-04T19:42:31.641Z,10.50
2023-01-04T19:44:59.616Z,10.50
2023-01-04T19:47:27.702Z,10.60
2023-01-04T19:49:55.716Z,10.60
2023-01-04T19:52:25.100Z,10.60
2023-01-04T19:54:59.568Z,10.60
2023-01-04T19:57:27.592Z,10.60
2023-01-04T19:59:55.633Z,10.60
2023-01-04T20:02:23.818Z,10.60
2023-01-04T20:04:51.877Z,10.60
2023-01-04T20:07:19.975Z,10.60
2023-01-04T20:09:50.844Z,10.60
2023-01-04T20:12:18.955Z,10.60
2023-01-04T20:14:47.267Z,10.60
2023-01-04T20:17:15.415Z,10.60
2023-01-04T20:19:43.458Z,10.60
2023-01-04T20:22:11.653Z,10.50
2023-01-04T20:24:39.677Z,10.50
2023-01-04T20:27:09.285Z,10.50
2023-01-04T20:29:37.833Z,10.60
2023-01-04T20:32:06.024Z,10.50
2023-01-04T20:34:35.952Z,10.60
2023-01-04T20:37:04.362Z,10.50
2023-01-04T20:39:32.362Z,10.50
2023-01-04T20:42:26.334Z,10.50
2023-01-04T20:44:55.747Z,10.40
2023-01-04T20:47:23.754Z,10.40
2023-01-04T20:49:51.899Z,10.30
2023-01-04T20:52:19.866Z,10.30
2023-01-04T20:54:49.146Z,10.30
2023-01-04T20:57:17.380Z,10.20
2023-01-04T20:59:46.495Z,10.20
2023-01-04T21:02:16.029Z,10.20
2023-01-04T21:04:46.907Z,10.10
2023-01-04T21:07:14.959Z,10.10
2023-01-04T21:09:42.948Z,10.10
2023-01-04T21:12:10.968Z,10.10
2023-01-04T21:14:38.967Z,10.10
2023-01-04T21:17:10.067Z,10.10
2023-01-04T21:19:39.491Z,10.10
2023-01-04T21:22:07.471Z,10.00
2023-01-04T21:24:35.996Z,10.10
2023-01-04T21:27:07.106Z,10.40
2023-01-04T21:29:36.245Z,10.00
2023-01-04T21:32:04.262Z,9.90
2023-01-04T21:34:33.492Z,9.90
2023-01-04T21:37:02.872Z,9.90
2023-01-04T21:39:31.116Z,9.90
2023-01-04T21:42:07.712Z,9.90
2023-01-04T21:44:35.763Z,9.80
2023-01-04T21:47:03.764Z,9.80
2023-01-04T21:49:31.775Z,9.80
2023-01-04T21:51:59.883Z,9.80
2023-01-04T21:54:29.386Z,9.80
2023-01-04T21:56:57.372Z,9.90
2023-01-04T21:59:25.423Z,9.90
2023-01-04T22:01:53.508Z,9.90
2023-01-04T22:04:21.673Z,9.90
2023-01-04T22:06:49.768Z,9.90
2023-01-04T22:09:17.743Z,9.90
2023-01-04T22:11:48.413Z,9.90
2023-01-04T22:14:16.436Z,9.90
2023-01-04T22:16:48.228Z,9.90
2023-01-04T22:19:18.069Z,9.90
2023-01-04T22:21:46.048Z,9.90
2023-01-04T22:24:14.816Z,9.90
2023-01-04T22:26:47.147Z,9.90
2023-01-04T22:29:18.662Z,10.00
2023-01-04T22:31:46.782Z,10.00
2023-01-04T22:34:17.739Z,10.00
2023-01-04T22:36:46.895Z,10.00
2023-01-04T22:39:16.510Z,10.00
2023-01-04T22:41:44.538Z,10.00
2023-01-04T22:44:12.504Z,10.00
2023-01-04T22:46:42.023Z,10.00
2023-01-04T22:49:11.903Z,10.00
2023-01-04T22:51:41.313Z,10.00
2023-01-04T22:54:10.366Z,10.00
2023-01-04T22:56:38.367Z,10.00
2023-01-04T22:59:08.879Z,10.00
2023-01-04T23:01:36.940Z,10.10
2023-01-04T23:04:06.520Z,10.00
2023-01-04T23:06:34.785Z,10.00
2023-01-04T23:09:03.509Z,10.00
2023-01-04T23:11:32.535Z,10.00
2023-01-04T23:14:02.731Z,10.00
2023-01-04T23:16:32.976Z,10.00
2023-01-04T23:19:01.265Z,9.90
2023-01-04T23:21:34.200Z,9.90
2023-01-04T23:24:02.421Z,9.90
2023-01-04T23:26:33.510Z,9.90
2023-01-04T23:29:02.025Z,9.90
2023-01-04T23:31:31.081Z,9.90
2023-01-04T23:34:00.537Z,9.90
2023-01-04T23:36:29.739Z,9.90
2023-01-04T23:38:59.934Z,9.80
2023-01-04T23:41:43.648Z,9.80
2023-01-04T23:44:12.548Z,9.80
2023-01-04T23:46:40.545Z,9.80
2023-01-04T23:49:08.648Z,9.80
2023-01-04T23:51:36.624Z,9.80
2023-01-04T23:54:06.177Z,9.80
2023-01-04T23:56:34.294Z,9.80
2023-01-04T23:59:03.312Z,9.80
